This is the latest recevied weather packets stored in our database for station/object eb1ayw-13. If no packets are shown the sender has not sent any weather packets the latest 10 day(s).
| Time | Temp. | Humidity | Pressure | Rain* | Wind** | Luminosity | Snow |
|---|---|---|---|---|---|---|---|
| 1778045869 | 33.33° C | 20% | 1005.5 hPa | - | - | - | - |
| 1778045269 | 33.33° C | 20% | 1005.4 hPa | - | - | - | - |
| 1778044669 | 34.44° C | 19% | 1005 hPa | - | - | - | - |
| 1778044069 | 32.78° C | 21% | 1005.4 hPa | - | - | - | - |
| 1778043469 | 32.22° C | 21% | 1005.6 hPa | - | - | - | - |
| 1778042870 | 36.11° C | 17% | 1004.4 hPa | - | - | - | - |
| 1778042269 | 30.56° C | 22% | 1006.2 hPa | - | - | - | - |
| 1778041669 | 37.22° C | 16% | 1004.2 hPa | - | - | - | - |
| 1778041069 | 33.89° C | 18% | 1005.2 hPa | - | - | - | - |
| 1778040469 | 36.67° C | 17% | 1004.7 hPa | - | - | - | - |
| 1778039869 | 37.78° C | 16% | 1004.3 hPa | - | - | - | - |
| 1778039269 | 38.33° C | 15% | 1004.2 hPa | - | - | - | - |
| 1778038669 | 37.78° C | 16% | 1004.4 hPa | - | - | - | - |
| 1778038069 | 36.11° C | 17% | 1004.8 hPa | - | - | - | - |
| 1778037469 | 36.11° C | 17% | 1004.8 hPa | - | - | - | - |
| 1778036869 | 35° C | 19% | 1005 hPa | - | - | - | - |
| 1778036269 | 32.78° C | 21% | 1005.7 hPa | - | - | - | - |
| 1778035669 | 34.44° C | 18% | 1005.3 hPa | - | - | - | - |
| 1778035069 | 34.44° C | 19% | 1005.2 hPa | - | - | - | - |
| 1778034469 | 30° C | 23% | 1006.4 hPa | - | - | - | - |
| 1778033869 | 33.33° C | 20% | 1005.6 hPa | - | - | - | - |
| 1778033269 | 32.78° C | 20% | 1005.8 hPa | - | - | - | - |
| 1778032669 | 36.67° C | 18% | 1004.8 hPa | - | - | - | - |
| 1778032069 | 35° C | 19% | 1005.4 hPa | - | - | - | - |
| 1778031469 | 36.11° C | 18% | 1005 hPa | - | - | - | - |
* Rain since midnight (hover to see other rain measurements)
** Current wind speed in m/s (hover to see current wind gust speed)